sensor_id;sensor_type;location;lat;lon;timestamp;pressure;altitude;pressure_sealevel;temperature;humidity
55289;BME280;41154;45.394;5.734;2023-05-20T00:01:59;96833.72;;;11.09;100.00
55289;BME280;41154;45.394;5.734;2023-05-20T00:04:25;96829.25;;;11.25;100.00
55289;BME280;41154;45.394;5.734;2023-05-20T00:06:51;96820.47;;;11.35;100.00
55289;BME280;41154;45.394;5.734;2023-05-20T00:09:17;96822.94;;;11.41;100.00
55289;BME280;41154;45.394;5.734;2023-05-20T00:11:44;96827.09;;;11.22;100.00
55289;BME280;41154;45.394;5.734;2023-05-20T00:14:10;96829.72;;;11.11;100.00
55289;BME280;41154;45.394;5.734;2023-05-20T00:16:36;96820.06;;;11.15;100.00
55289;BME280;41154;45.394;5.734;2023-05-20T00:19:02;96813.38;;;11.18;100.00
55289;BME280;41154;45.394;5.734;2023-05-20T00:21:28;96822.22;;;11.13;100.00
55289;BME280;41154;45.394;5.734;2023-05-20T00:23:54;96823.19;;;10.97;100.00
55289;BME280;41154;45.394;5.734;2023-05-20T00:26:21;96831.25;;;11.02;100.00
55289;BME280;41154;45.394;5.734;2023-05-20T00:28:52;96822.81;;;11.21;100.00
55289;BME280;41154;45.394;5.734;2023-05-20T00:31:18;96821.28;;;11.35;100.00
55289;BME280;41154;45.394;5.734;2023-05-20T00:33:43;96806.72;;;11.26;100.00
55289;BME280;41154;45.394;5.734;2023-05-20T00:36:09;96807.38;;;11.06;100.00
55289;BME280;41154;45.394;5.734;2023-05-20T00:38:35;96796.88;;;10.99;100.00
55289;BME280;41154;45.394;5.734;2023-05-20T00:41:01;96804.66;;;10.95;100.00
55289;BME280;41154;45.394;5.734;2023-05-20T00:43:27;96800.34;;;10.94;100.00
55289;BME280;41154;45.394;5.734;2023-05-20T00:45:53;96807.06;;;10.97;100.00
55289;BME280;41154;45.394;5.734;2023-05-20T00:48:19;96800.09;;;10.96;100.00
55289;BME280;41154;45.394;5.734;2023-05-20T00:50:48;96797.06;;;10.87;100.00
55289;BME280;41154;45.394;5.734;2023-05-20T00:53:16;96799.56;;;10.99;100.00
55289;BME280;41154;45.394;5.734;2023-05-20T00:55:45;96794.19;;;10.99;100.00
55289;BME280;41154;45.394;5.734;2023-05-20T00:58:11;96796.03;;;10.93;100.00
55289;BME280;41154;45.394;5.734;2023-05-20T01:00:38;96792.81;;;10.91;100.00
55289;BME280;41154;45.394;5.734;2023-05-20T01:03:03;96787.78;;;11.00;100.00
55289;BME280;41154;45.394;5.734;2023-05-20T01:05:30;96785.88;;;10.95;100.00
55289;BME280;41154;45.394;5.734;2023-05-20T01:07:56;96796.28;;;10.92;100.00
55289;BME280;41154;45.394;5.734;2023-05-20T01:10:24;96798.44;;;10.90;100.00
55289;BME280;41154;45.394;5.734;2023-05-20T01:12:56;96797.38;;;10.91;100.00
55289;BME280;41154;45.394;5.734;2023-05-20T01:15:26;96799.06;;;11.02;100.00
55289;BME280;41154;45.394;5.734;2023-05-20T01:18:00;96795.22;;;10.93;100.00
55289;BME280;41154;45.394;5.734;2023-05-20T01:20:27;96792.00;;;10.91;100.00
55289;BME280;41154;45.394;5.734;2023-05-20T01:22:57;96791.69;;;10.87;100.00
55289;BME280;41154;45.394;5.734;2023-05-20T01:25:24;96796.75;;;10.84;100.00
55289;BME280;41154;45.394;5.734;2023-05-20T01:27:51;96794.72;;;10.96;100.00
55289;BME280;41154;45.394;5.734;2023-05-20T01:30:19;96795.88;;;11.10;100.00
55289;BME280;41154;45.394;5.734;2023-05-20T01:32:53;96795.81;;;11.00;100.00
55289;BME280;41154;45.394;5.734;2023-05-20T01:35:19;96790.78;;;11.14;100.00
55289;BME280;41154;45.394;5.734;2023-05-20T01:37:49;96793.09;;;10.95;100.00
55289;BME280;41154;45.394;5.734;2023-05-20T01:40:17;96788.81;;;10.94;100.00
55289;BME280;41154;45.394;5.734;2023-05-20T01:42:43;96792.00;;;10.91;100.00
55289;BME280;41154;45.394;5.734;2023-05-20T01:45:11;96788.16;;;10.82;100.00
55289;BME280;41154;45.394;5.734;2023-05-20T01:47:37;96778.75;;;10.79;100.00
55289;BME280;41154;45.394;5.734;2023-05-20T01:50:03;96779.03;;;10.83;100.00
55289;BME280;41154;45.394;5.734;2023-05-20T01:52:29;96781.41;;;10.74;100.00
55289;BME280;41154;45.394;5.734;2023-05-20T01:54:56;96770.94;;;10.72;100.00
55289;BME280;41154;45.394;5.734;2023-05-20T01:57:22;96772.78;;;10.72;100.00
55289;BME280;41154;45.394;5.734;2023-05-20T01:59:50;96774.28;;;10.90;100.00
55289;BME280;41154;45.394;5.734;2023-05-20T02:02:16;96769.94;;;10.84;100.00
55289;BME280;41154;45.394;5.734;2023-05-20T02:04:44;96771.81;;;10.83;100.00
55289;BME280;41154;45.394;5.734;2023-05-20T02:07:14;96771.81;;;10.83;100.00
55289;BME280;41154;45.394;5.734;2023-05-20T02:09:40;96773.66;;;10.77;100.00
55289;BME280;41154;45.394;5.734;2023-05-20T02:12:07;96765.16;;;10.91;100.00
55289;BME280;41154;45.394;5.734;2023-05-20T02:14:33;96764.56;;;10.84;100.00
55289;BME280;41154;45.394;5.734;2023-05-20T02:16:59;96765.88;;;10.81;100.00
55289;BME280;41154;45.394;5.734;2023-05-20T02:19:26;96762.13;;;10.82;100.00
55289;BME280;41154;45.394;5.734;2023-05-20T02:21:51;96764.28;;;10.80;100.00
55289;BME280;41154;45.394;5.734;2023-05-20T02:24:17;96758.50;;;10.99;100.00
55289;BME280;41154;45.394;5.734;2023-05-20T02:26:46;96756.03;;;10.92;100.00
55289;BME280;41154;45.394;5.734;2023-05-20T02:29:15;96762.44;;;10.86;100.00
55289;BME280;41154;45.394;5.734;2023-05-20T02:31:41;96759.09;;;11.11;100.00
55289;BME280;41154;45.394;5.734;2023-05-20T02:34:07;96759.16;;;11.16;100.00
55289;BME280;41154;45.394;5.734;2023-05-20T02:36:34;96752.41;;;11.08;100.00
55289;BME280;41154;45.394;5.734;2023-05-20T02:39:01;96756.00;;;10.87;100.00
55289;BME280;41154;45.394;5.734;2023-05-20T02:41:27;96751.41;;;10.82;100.00
55289;BME280;41154;45.394;5.734;2023-05-20T02:43:52;96753.03;;;10.83;100.00
55289;BME280;41154;45.394;5.734;2023-05-20T02:46:19;96749.09;;;10.96;100.00
55289;BME280;41154;45.394;5.734;2023-05-20T02:48:44;96744.84;;;11.05;100.00
55289;BME280;41154;45.394;5.734;2023-05-20T02:51:10;96746.81;;;11.20;100.00
55289;BME280;41154;45.394;5.734;2023-05-20T02:53:36;96742.03;;;11.27;100.00
55289;BME280;41154;45.394;5.734;2023-05-20T02:56:03;96741.69;;;11.19;100.00
55289;BME280;41154;45.394;5.734;2023-05-20T02:58:29;96738.84;;;10.88;100.00
55289;BME280;41154;45.394;5.734;2023-05-20T03:00:55;96736.94;;;10.83;100.00
55289;BME280;41154;45.394;5.734;2023-05-20T03:03:24;96727.25;;;10.77;100.00
55289;BME280;41154;45.394;5.734;2023-05-20T03:05:51;96734.47;;;10.76;100.00
55289;BME280;41154;45.394;5.734;2023-05-20T03:08:21;96732.28;;;10.73;100.00
55289;BME280;41154;45.394;5.734;2023-05-20T03:10:47;96734.03;;;10.90;100.00
55289;BME280;41154;45.394;5.734;2023-05-20T03:13:12;96721.09;;;10.82;100.00
55289;BME280;41154;45.394;5.734;2023-05-20T03:15:42;96725.38;;;10.83;100.00
55289;BME280;41154;45.394;5.734;2023-05-20T03:18:11;96724.81;;;10.75;100.00
55289;BME280;41154;45.394;5.734;2023-05-20T03:20:38;96726.41;;;10.76;100.00
55289;BME280;41154;45.394;5.734;2023-05-20T03:23:06;96724.34;;;10.89;100.00
55289;BME280;41154;45.394;5.734;2023-05-20T03:25:35;96721.09;;;10.82;100.00
55289;BME280;41154;45.394;5.734;2023-05-20T03:28:01;96714.09;;;10.81;100.00
55289;BME280;41154;45.394;5.734;2023-05-20T03:30:27;96709.78;;;10.79;100.00
55289;BME280;41154;45.394;5.734;2023-05-20T03:32:55;96709.50;;;10.76;100.00
55289;BME280;41154;45.394;5.734;2023-05-20T03:35:24;96712.97;;;10.71;100.00
55289;BME280;41154;45.394;5.734;2023-05-20T03:37:51;96697.22;;;10.80;100.00
55289;BME280;41154;45.394;5.734;2023-05-20T03:40:19;96706.28;;;10.74;100.00
55289;BME280;41154;45.394;5.734;2023-05-20T03:42:47;96708.66;;;10.70;100.00
55289;BME280;41154;45.394;5.734;2023-05-20T03:45:14;96710.50;;;10.65;100.00
55289;BME280;41154;45.394;5.734;2023-05-20T03:47:52;96713.44;;;10.63;100.00
55289;BME280;41154;45.394;5.734;2023-05-20T03:50:18;96709.22;;;10.72;100.00
55289;BME280;41154;45.394;5.734;2023-05-20T03:52:44;96704.50;;;10.90;100.00
55289;BME280;41154;45.394;5.734;2023-05-20T03:55:10;96710.47;;;11.02;100.00
55289;BME280;41154;45.394;5.734;2023-05-20T03:57:36;96710.75;;;11.01;100.00
55289;BME280;41154;45.394;5.734;2023-05-20T04:00:03;96704.47;;;10.85;100.00
55289;BME280;41154;45.394;5.734;2023-05-20T04:02:41;96707.13;;;10.79;100.00
55289;BME280;41154;45.394;5.734;2023-05-20T04:05:08;96708.72;;;10.75;100.00
55289;BME280;41154;45.394;5.734;2023-05-20T04:07:36;96705.31;;;10.90;100.00
55289;BME280;41154;45.394;5.734;2023-05-20T04:10:03;96704.25;;;10.91;100.00
55289;BME280;41154;45.394;5.734;2023-05-20T04:12:29;96698.53;;;10.83;100.00
55289;BME280;41154;45.394;5.734;2023-05-20T04:14:59;96694.81;;;10.89;100.00
55289;BME280;41154;45.394;5.734;2023-05-20T04:17:28;96698.53;;;10.83;100.00
55289;BME280;41154;45.394;5.734;2023-05-20T04:19:57;96697.50;;;10.89;100.00
55289;BME280;41154;45.394;5.734;2023-05-20T04:22:24;96705.63;;;10.94;100.00
55289;BME280;41154;45.394;5.734;2023-05-20T04:24:51;96703.13;;;10.82;100.00
55289;BME280;41154;45.394;5.734;2023-05-20T04:27:17;96704.44;;;10.79;100.00
55289;BME280;41154;45.394;5.734;2023-05-20T04:29:42;96707.38;;;10.78;100.00
55289;BME280;41154;45.394;5.734;2023-05-20T04:32:16;96704.25;;;10.91;100.00
55289;BME280;41154;45.394;5.734;2023-05-20T04:34:43;96708.47;;;10.82;100.00
55289;BME280;41154;45.394;5.734;2023-05-20T04:37:11;96712.78;;;10.83;100.00
55289;BME280;41154;45.394;5.734;2023-05-20T04:39:38;96710.97;;;10.94;100.00
55289;BME280;41154;45.394;5.734;2023-05-20T04:42:05;96703.91;;;10.83;100.00
55289;BME280;41154;45.394;5.734;2023-05-20T04:44:31;96696.38;;;10.79;100.00
55289;BME280;41154;45.394;5.734;2023-05-20T04:46:57;96693.25;;;10.93;100.00
55289;BME280;41154;45.394;5.734;2023-05-20T04:49:24;96695.13;;;10.92;100.00
55289;BME280;41154;45.394;5.734;2023-05-20T04:51:56;96698.59;;;10.88;100.00
55289;BME280;41154;45.394;5.734;2023-05-20T04:54:21;96703.19;;;10.92;100.00
55289;BME280;41154;45.394;5.734;2023-05-20T04:56:48;96700.25;;;10.94;100.00
55289;BME280;41154;45.394;5.734;2023-05-20T04:59:15;96695.34;;;10.86;100.00
55289;BME280;41154;45.394;5.734;2023-05-20T05:01:41;96683.38;;;10.99;100.00
55289;BME280;41154;45.394;5.734;2023-05-20T05:04:07;96689.78;;;10.97;100.00
55289;BME280;41154;45.394;5.734;2023-05-20T05:06:34;96685.84;;;11.15;100.00
55289;BME280;41154;45.394;5.734;2023-05-20T05:09:01;96688.06;;;11.34;100.00
55289;BME280;41154;45.394;5.734;2023-05-20T05:11:27;96692.91;;;11.27;100.00
55289;BME280;41154;45.394;5.734;2023-05-20T05:13:54;96696.06;;;11.19;100.00
55289;BME280;41154;45.394;5.734;2023-05-20T05:16:22;96690.41;;;11.10;100.00
55289;BME280;41154;45.394;5.734;2023-05-20T05:18:48;96687.97;;;11.08;100.00
55289;BME280;41154;45.394;5.734;2023-05-20T05:21:13;96682.63;;;11.13;100.00
55289;BME280;41154;45.394;5.734;2023-05-20T05:23:40;96686.34;;;11.07;100.00
55289;BME280;41154;45.394;5.734;2023-05-20T05:26:07;96683.13;;;11.10;100.00
55289;BME280;41154;45.394;5.734;2023-05-20T05:28:33;96677.59;;;11.27;100.00
55289;BME280;41154;45.394;5.734;2023-05-20T05:30:59;96683.88;;;11.54;100.00
55289;BME280;41154;45.394;5.734;2023-05-20T05:33:26;96690.28;;;11.52;100.00
55289;BME280;41154;45.394;5.734;2023-05-20T05:35:53;96678.97;;;11.35;100.00
55289;BME280;41154;45.394;5.734;2023-05-20T05:38:21;96691.31;;;11.36;100.00
55289;BME280;41154;45.394;5.734;2023-05-20T05:40:47;96680.00;;;11.24;100.00
55289;BME280;41154;45.394;5.734;2023-05-20T05:43:14;96684.38;;;11.45;100.00
55289;BME280;41154;45.394;5.734;2023-05-20T05:45:40;96689.84;;;11.81;100.00
55289;BME280;41154;45.394;5.734;2023-05-20T05:48:07;96685.88;;;11.94;100.00
55289;BME280;41154;45.394;5.734;2023-05-20T05:50:33;96682.31;;;11.88;100.00
55289;BME280;41154;45.394;5.734;2023-05-20T05:53:00;96681.84;;;11.97;100.00
55289;BME280;41154;45.394;5.734;2023-05-20T05:55:26;96680.78;;;12.03;100.00
55289;BME280;41154;45.394;5.734;2023-05-20T05:57:53;96684.81;;;12.05;100.00
55289;BME280;41154;45.394;5.734;2023-05-20T06:00:19;96682.00;;;11.64;100.00
55289;BME280;41154;45.394;5.734;2023-05-20T06:02:45;96685.22;;;11.61;100.00
55289;BME280;41154;45.394;5.734;2023-05-20T06:05:19;96685.19;;;11.51;100.00
55289;BME280;41154;45.394;5.734;2023-05-20T06:07:45;96685.91;;;12.04;100.00
55289;BME280;41154;45.394;5.734;2023-05-20T06:10:11;96682.13;;;12.16;100.00
55289;BME280;41154;45.394;5.734;2023-05-20T06:12:36;96681.28;;;11.95;100.00
55289;BME280;41154;45.394;5.734;2023-05-20T06:15:03;96682.13;;;12.05;100.00
55289;BME280;41154;45.394;5.734;2023-05-20T06:17:29;96681.31;;;12.26;100.00
55289;BME280;41154;45.394;5.734;2023-05-20T06:19:54;96683.75;;;12.32;100.00
55289;BME280;41154;45.394;5.734;2023-05-20T06:22:20;96680.25;;;12.27;100.00
55289;BME280;41154;45.394;5.734;2023-05-20T06:24:46;96677.56;;;12.32;100.00
55289;BME280;41154;45.394;5.734;2023-05-20T06:27:12;96677.56;;;12.37;100.00
55289;BME280;41154;45.394;5.734;2023-05-20T06:29:37;96684.00;;;12.56;100.00
55289;BME280;41154;45.394;5.734;2023-05-20T06:32:03;96682.41;;;12.66;100.00
55289;BME280;41154;45.394;5.734;2023-05-20T06:34:30;96679.19;;;12.64;100.00
55289;BME280;41154;45.394;5.734;2023-05-20T06:36:55;96674.53;;;12.90;100.00
55289;BME280;41154;45.394;5.734;2023-05-20T06:39:22;96672.25;;;13.38;100.00
55289;BME280;41154;45.394;5.734;2023-05-20T06:41:47;96681.09;;;13.54;100.00
55289;BME280;41154;45.394;5.734;2023-05-20T06:44:25;96680.22;;;13.64;100.00
55289;BME280;41154;45.394;5.734;2023-05-20T06:47:00;96671.91;;;13.60;100.00
55289;BME280;41154;45.394;5.734;2023-05-20T06:49:25;96678.97;;;13.96;100.00
55289;BME280;41154;45.394;5.734;2023-05-20T06:51:51;96674.88;;;14.03;100.00
55289;BME280;41154;45.394;5.734;2023-05-20T06:54:18;96678.75;;;13.87;100.00
55289;BME280;41154;45.394;5.734;2023-05-20T06:56:45;96678.09;;;14.06;100.00
55289;BME280;41154;45.394;5.734;2023-05-20T06:59:13;96683.03;;;13.93;100.00
55289;BME280;41154;45.394;5.734;2023-05-20T07:01:38;96682.34;;;14.17;100.00
55289;BME280;41154;45.394;5.734;2023-05-20T07:04:05;96682.06;;;14.18;100.00
55289;BME280;41154;45.394;5.734;2023-05-20T07:06:32;96683.09;;;14.57;100.00
55289;BME280;41154;45.394;5.734;2023-05-20T07:08:58;96675.44;;;14.35;100.00
55289;BME280;41154;45.394;5.734;2023-05-20T07:11:25;96676.50;;;14.73;100.00
55289;BME280;41154;45.394;5.734;2023-05-20T07:13:51;96665.94;;;15.69;100.00
55289;BME280;41154;45.394;5.734;2023-05-20T07:16:17;96665.78;;;16.22;100.00
55289;BME280;41154;45.394;5.734;2023-05-20T07:18:48;96679.72;;;16.95;100.00
55289;BME280;41154;45.394;5.734;2023-05-20T07:21:14;96668.53;;;17.30;100.00
55289;BME280;41154;45.394;5.734;2023-05-20T07:23:52;96659.19;;;16.42;100.00
55289;BME280;41154;45.394;5.734;2023-05-20T07:26:18;96666.50;;;16.09;100.00
55289;BME280;41154;45.394;5.734;2023-05-20T07:28:44;96663.72;;;15.95;100.00
55289;BME280;41154;45.394;5.734;2023-05-20T07:31:12;96662.06;;;16.98;100.00
55289;BME280;41154;45.394;5.734;2023-05-20T07:33:42;96660.56;;;17.47;100.00
55289;BME280;41154;45.394;5.734;2023-05-20T07:36:08;96667.50;;;18.04;100.00
55289;BME280;41154;45.394;5.734;2023-05-20T07:38:34;96664.31;;;17.23;100.00
55289;BME280;41154;45.394;5.734;2023-05-20T07:41:05;96652.16;;;16.27;100.00
55289;BME280;41154;45.394;5.734;2023-05-20T07:43:32;96658.63;;;15.50;100.00
55289;BME280;41154;45.394;5.734;2023-05-20T07:45:58;96652.44;;;16.26;100.00
55289;BME280;41154;45.394;5.734;2023-05-20T07:48:24;96644.56;;;15.72;100.00
55289;BME280;41154;45.394;5.734;2023-05-20T07:50:50;96649.69;;;16.12;100.00
55289;BME280;41154;45.394;5.734;2023-05-20T07:53:17;96650.22;;;15.52;100.00
55289;BME280;41154;45.394;5.734;2023-05-20T07:55:43;96643.34;;;15.40;100.00
55289;BME280;41154;45.394;5.734;2023-05-20T07:58:09;96640.22;;;15.09;100.00
55289;BME280;41154;45.394;5.734;2023-05-20T08:00:35;96641.41;;;15.46;100.00
55289;BME280;41154;45.394;5.734;2023-05-20T08:03:04;96644.31;;;14.77;100.00
55289;BME280;41154;45.394;5.734;2023-05-20T08:05:44;96636.66;;;15.14;100.00
55289;BME280;41154;45.394;5.734;2023-05-20T08:08:10;96639.84;;;15.16;100.00
55289;BME280;41154;45.394;5.734;2023-05-20T08:14:34;96636.41;;;14.56;100.00
55289;BME280;41154;45.394;5.734;2023-05-20T08:17:00;96633.00;;;15.23;100.00
55289;BME280;41154;45.394;5.734;2023-05-20T08:19:26;96631.63;;;15.02;100.00
55289;BME280;41154;45.394;5.734;2023-05-20T08:21:51;96640.72;;;14.87;100.00
55289;BME280;41154;45.394;5.734;2023-05-20T08:24:17;96635.75;;;14.99;100.00
55289;BME280;41154;45.394;5.734;2023-05-20T08:26:44;96630.78;;;14.53;100.00
55289;BME280;41154;45.394;5.734;2023-05-20T08:29:10;96632.03;;;14.31;100.00
55289;BME280;41154;45.394;5.734;2023-05-20T08:31:35;96629.44;;;14.21;100.00
55289;BME280;41154;45.394;5.734;2023-05-20T08:34:01;96636.22;;;14.48;100.00
55289;BME280;41154;45.394;5.734;2023-05-20T08:36:27;96634.34;;;15.26;100.00
55289;BME280;41154;45.394;5.734;2023-05-20T08:38:53;96630.34;;;14.99;100.00
55289;BME280;41154;45.394;5.734;2023-05-20T08:41:21;96632.84;;;14.90;100.00
55289;BME280;41154;45.394;5.734;2023-05-20T08:43:47;96629.69;;;15.07;100.00
55289;BME280;41154;45.394;5.734;2023-05-20T08:46:15;96630.31;;;14.75;100.00
55289;BME280;41154;45.394;5.734;2023-05-20T08:48:42;96628.03;;;15.12;100.00
55289;BME280;41154;45.394;5.734;2023-05-20T08:51:09;96637.56;;;15.28;100.00
55289;BME280;41154;45.394;5.734;2023-05-20T08:53:38;96635.63;;;15.53;100.00
55289;BME280;41154;45.394;5.734;2023-05-20T08:56:04;96634.25;;;15.55;100.00
55289;BME280;41154;45.394;5.734;2023-05-20T08:58:31;96624.59;;;15.68;100.00
55289;BME280;41154;45.394;5.734;2023-05-20T09:01:00;96624.06;;;16.23;100.00
55289;BME280;41154;45.394;5.734;2023-05-20T09:03:26;96628.28;;;15.77;100.00
55289;BME280;41154;45.394;5.734;2023-05-20T09:05:53;96631.41;;;16.04;100.00
55289;BME280;41154;45.394;5.734;2023-05-20T09:08:23;96630.00;;;16.72;100.00
55289;BME280;41154;45.394;5.734;2023-05-20T09:10:52;96628.28;;;16.29;100.00
55289;BME280;41154;45.394;5.734;2023-05-20T09:13:18;96629.72;;;16.08;100.00
55289;BME280;41154;45.394;5.734;2023-05-20T09:15:44;96625.63;;;16.43;100.00
55289;BME280;41154;45.394;5.734;2023-05-20T09:18:10;96628.75;;;16.50;100.00
55289;BME280;41154;45.394;5.734;2023-05-20T09:20:36;96633.31;;;16.36;100.00
55289;BME280;41154;45.394;5.734;2023-05-20T09:23:07;96641.22;;;15.99;100.00
55289;BME280;41154;45.394;5.734;2023-05-20T09:25:33;96634.28;;;15.93;100.00
55289;BME280;41154;45.394;5.734;2023-05-20T09:27:59;96633.38;;;15.60;100.00
55289;BME280;41154;45.394;5.734;2023-05-20T09:30:25;96638.00;;;15.97;100.00
55289;BME280;41154;45.394;5.734;2023-05-20T09:32:55;96637.69;;;17.25;100.00
55289;BME280;41154;45.394;5.734;2023-05-20T09:35:22;96632.16;;;17.03;100.00
55289;BME280;41154;45.394;5.734;2023-05-20T09:37:52;96636.44;;;17.73;100.00
55289;BME280;41154;45.394;5.734;2023-05-20T09:40:22;96630.31;;;18.49;100.00
55289;BME280;41154;45.394;5.734;2023-05-20T09:45:20;96626.59;;;18.99;100.00
55289;BME280;41154;45.394;5.734;2023-05-20T09:47:48;96621.47;;;17.62;100.00
55289;BME280;41154;45.394;5.734;2023-05-20T09:50:15;96627.91;;;16.69;100.00
55289;BME280;41154;45.394;5.734;2023-05-20T09:52:42;96623.50;;;16.40;100.00
55289;BME280;41154;45.394;5.734;2023-05-20T09:55:09;96617.09;;;16.97;100.00
55289;BME280;41154;45.394;5.734;2023-05-20T09:57:36;96619.63;;;17.21;100.00
55289;BME280;41154;45.394;5.734;2023-05-20T10:00:05;96614.50;;;17.05;100.00
55289;BME280;41154;45.394;5.734;2023-05-20T10:02:58;96632.16;;;17.31;100.00
55289;BME280;41154;45.394;5.734;2023-05-20T10:05:31;96627.84;;;17.30;100.00
55289;BME280;41154;45.394;5.734;2023-05-20T10:08:31;96623.03;;;17.27;100.00
55289;BME280;41154;45.394;5.734;2023-05-20T10:21:56;96615.75;;;16.66;100.00
55289;BME280;41154;45.394;5.734;2023-05-20T10:24:31;96611.81;;;16.59;100.00
55289;BME280;41154;45.394;5.734;2023-05-20T10:26:58;96605.56;;;16.91;100.00
55289;BME280;41154;45.394;5.734;2023-05-20T10:29:26;96607.47;;;16.91;100.00
55289;BME280;41154;45.394;5.734;2023-05-20T10:31:52;96613.59;;;15.84;100.00
55289;BME280;41154;45.394;5.734;2023-05-20T10:34:20;96605.06;;;16.28;100.00
55289;BME280;41154;45.394;5.734;2023-05-20T10:36:56;96610.66;;;16.79;100.00
55289;BME280;41154;45.394;5.734;2023-05-20T10:39:29;96607.88;;;16.37;100.00
55289;BME280;41154;45.394;5.734;2023-05-20T10:42:08;96602.22;;;16.20;100.00
55289;BME280;41154;45.394;5.734;2023-05-20T10:44:45;96605.66;;;16.25;100.00
55289;BME280;41154;45.394;5.734;2023-05-20T10:47:12;96607.03;;;16.69;100.00
55289;BME280;41154;45.394;5.734;2023-05-20T10:49:45;96600.00;;;16.82;100.00
55289;BME280;41154;45.394;5.734;2023-05-20T10:52:16;96600.53;;;16.98;100.00
55289;BME280;41154;45.394;5.734;2023-05-20T10:54:55;96591.47;;;17.45;100.00
55289;BME280;41154;45.394;5.734;2023-05-20T10:57:22;96599.22;;;18.33;100.00
55289;BME280;41154;45.394;5.734;2023-05-20T10:59:49;96602.50;;;18.21;100.00
55289;BME280;41154;45.394;5.734;2023-05-20T11:02:16;96601.00;;;18.38;100.00
55289;BME280;41154;45.394;5.734;2023-05-20T11:04:42;96593.69;;;19.10;100.00
55289;BME280;41154;45.394;5.734;2023-05-20T11:07:08;96586.22;;;18.84;100.00
55289;BME280;41154;45.394;5.734;2023-05-20T11:09:35;96588.81;;;18.04;100.00
55289;BME280;41154;45.394;5.734;2023-05-20T11:12:01;96600.72;;;17.80;100.00
55289;BME280;41154;45.394;5.734;2023-05-20T11:14:27;96590.41;;;16.90;100.00
55289;BME280;41154;45.394;5.734;2023-05-20T11:16:59;96596.63;;;17.04;100.00
55289;BME280;41154;45.394;5.734;2023-05-20T11:19:26;96590.13;;;17.05;100.00
55289;BME280;41154;45.394;5.734;2023-05-20T11:21:52;96591.19;;;17.18;100.00
55289;BME280;41154;45.394;5.734;2023-05-20T11:24:27;96590.09;;;17.33;100.00
55289;BME280;41154;45.394;5.734;2023-05-20T11:26:56;96589.69;;;16.84;100.00
55289;BME280;41154;45.394;5.734;2023-05-20T11:29:25;96588.28;;;16.73;100.00
55289;BME280;41154;45.394;5.734;2023-05-20T11:31:51;96588.91;;;17.12;100.00
55289;BME280;41154;45.394;5.734;2023-05-20T11:34:20;96583.56;;;16.79;100.00
55289;BME280;41154;45.394;5.734;2023-05-20T11:36:47;96581.03;;;17.52;100.00
55289;BME280;41154;45.394;5.734;2023-05-20T11:39:16;96577.94;;;17.81;100.00
55289;BME280;41154;45.394;5.734;2023-05-20T11:41:42;96569.13;;;18.21;100.00
55289;BME280;41154;45.394;5.734;2023-05-20T11:44:11;96575.34;;;17.62;100.00
55289;BME280;41154;45.394;5.734;2023-05-20T11:46:44;96570.13;;;18.02;100.00
55289;BME280;41154;45.394;5.734;2023-05-20T11:49:12;96577.53;;;17.74;100.00
55289;BME280;41154;45.394;5.734;2023-05-20T11:51:38;96570.84;;;17.57;100.00
55289;BME280;41154;45.394;5.734;2023-05-20T11:54:06;96568.97;;;18.48;100.00
55289;BME280;41154;45.394;5.734;2023-05-20T11:56:38;96575.53;;;17.79;100.00
55289;BME280;41154;45.394;5.734;2023-05-20T11:59:07;96571.28;;;18.10;100.00
55289;BME280;41154;45.394;5.734;2023-05-20T12:01:38;96565.66;;;18.29;100.00
55289;BME280;41154;45.394;5.734;2023-05-20T12:04:11;96571.59;;;17.86;100.00
55289;BME280;41154;45.394;5.734;2023-05-20T12:06:40;96561.69;;;18.66;100.00
55289;BME280;41154;45.394;5.734;2023-05-20T12:09:07;96574.13;;;18.59;100.00
55289;BME280;41154;45.394;5.734;2023-05-20T12:11:35;96569.34;;;17.51;100.00
55289;BME280;41154;45.394;5.734;2023-05-20T12:14:04;96563.53;;;17.58;100.00
55289;BME280;41154;45.394;5.734;2023-05-20T12:16:31;96567.94;;;18.36;100.00
55289;BME280;41154;45.394;5.734;2023-05-20T12:18:57;96571.16;;;18.38;100.00
55289;BME280;41154;45.394;5.734;2023-05-20T12:21:23;96571.63;;;17.21;100.00
55289;BME280;41154;45.394;5.734;2023-05-20T12:23:49;96570.22;;;17.24;100.00
55289;BME280;41154;45.394;5.734;2023-05-20T12:26:15;96563.34;;;17.40;100.00
55289;BME280;41154;45.394;5.734;2023-05-20T12:28:41;96568.13;;;17.57;100.00
55289;BME280;41154;45.394;5.734;2023-05-20T12:31:06;96561.28;;;18.19;100.00
55289;BME280;41154;45.394;5.734;2023-05-20T12:33:32;96557.56;;;18.69;100.00
55289;BME280;41154;45.394;5.734;2023-05-20T12:35:58;96552.25;;;18.95;100.00
55289;BME280;41154;45.394;5.734;2023-05-20T12:38:24;96561.16;;;18.24;100.00
55289;BME280;41154;45.394;5.734;2023-05-20T12:40:50;96553.25;;;19.26;100.00
55289;BME280;41154;45.394;5.734;2023-05-20T12:43:15;96561.00;;;20.11;100.00
55289;BME280;41154;45.394;5.734;2023-05-20T12:45:41;96555.56;;;19.50;100.00
55289;BME280;41154;45.394;5.734;2023-05-20T12:48:07;96559.69;;;19.30;100.00
55289;BME280;41154;45.394;5.734;2023-05-20T12:50:33;96553.50;;;19.90;100.00
55289;BME280;41154;45.394;5.734;2023-05-20T12:52:59;96552.44;;;20.39;100.00
55289;BME280;41154;45.394;5.734;2023-05-20T12:55:25;96553.03;;;19.88;100.00
55289;BME280;41154;45.394;5.734;2023-05-20T12:57:53;96547.91;;;18.00;100.00
55289;BME280;41154;45.394;5.734;2023-05-20T13:00:19;96552.59;;;18.71;100.00
55289;BME280;41154;45.394;5.734;2023-05-20T13:02:46;96540.25;;;18.65;100.00
55289;BME280;41154;45.394;5.734;2023-05-20T13:05:12;96541.97;;;18.21;100.00
55289;BME280;41154;45.394;5.734;2023-05-20T13:07:38;96541.94;;;17.53;100.00
55289;BME280;41154;45.394;5.734;2023-05-20T13:10:05;96544.56;;;17.81;100.00